Time;durP1;ratioP1;P1;durP2;ratioP2;P2;SDS_P1;SDS_P2;PMS_P1;PMS_P2;Temp;Humidity;BMP_temperature;BMP_pressure;BME280_temperature;BME280_humidity;BME280_pressure;Samples;Min_cycle;Max_cycle;Signal;HPM_P1;HPM_P2
2022/01/17 00:01:53;;;;;;;26.70;19.60;;;;;;;4.73;100.00;101498.75;5015273;28;20247;-55
2022/01/17 00:17:52;;;;;;;21.70;14.77;;;;;;;4.85;100.00;101473.19;4995852;28;20228;-55
2022/01/17 00:20:25;;;;;;;23.00;14.77;;;;;;;4.87;100.00;101491.44;4992160;28;20260;-56
2022/01/17 00:22:52;;;;;;;21.47;15.77;;;;;;;4.76;100.00;101484.13;4992053;28;20230;-56
2022/01/17 00:25:18;;;;;;;21.33;15.40;;;;;;;4.83;100.00;101476.56;4990505;28;20329;-55
2022/01/17 00:27:45;;;;;;;24.97;13.80;;;;;;;4.84;100.00;101471.38;4986138;28;20261;-56
2022/01/17 00:30:11;;;;;;;17.17;12.37;;;;;;;4.91;100.00;101469.88;4996854;28;20272;-59
2022/01/17 00:32:37;;;;;;;21.90;13.37;;;;;;;4.96;100.00;101465.75;4993428;28;20237;-56
2022/01/17 00:35:06;;;;;;;19.30;11.60;;;;;;;5.02;100.00;101469.44;4989589;28;20310;-58
2022/01/17 00:37:32;;;;;;;15.77;10.77;;;;;;;5.07;100.00;101469.56;4989336;28;20253;-56
2022/01/17 00:39:59;;;;;;;17.33;11.57;;;;;;;5.07;100.00;101471.28;4997715;28;20727;-56
2022/01/17 00:42:25;;;;;;;14.83;11.00;;;;;;;5.02;100.00;101477.25;4987821;28;20292;-55
2022/01/17 00:44:51;;;;;;;19.37;12.43;;;;;;;4.99;100.00;101471.03;4985095;28;20242;-56
2022/01/17 00:47:18;;;;;;;22.13;13.33;;;;;;;5.02;100.00;101465.94;4992558;28;20261;-55
2022/01/17 00:49:44;;;;;;;16.30;11.13;;;;;;;5.10;100.00;101464.47;4992792;28;20323;-57
2022/01/17 00:52:12;;;;;;;16.07;11.57;;;;;;;5.20;100.00;101457.84;5005257;28;20987;-57
2022/01/17 00:54:38;;;;;;;19.57;11.43;;;;;;;5.13;100.00;101454.16;4999092;28;20261;-57
2022/01/17 00:57:05;;;;;;;15.27;10.40;;;;;;;5.25;100.00;101444.13;4993348;28;20265;-58
2022/01/17 00:59:31;;;;;;;19.23;10.00;;;;;;;5.29;100.00;101446.84;4992385;28;21026;-56
2022/01/17 01:01:58;;;;;;;15.87;10.17;;;;;;;5.26;100.00;101456.34;4998556;28;20225;-57
2022/01/17 01:04:24;;;;;;;13.63;9.67;;;;;;;5.39;100.00;101452.38;4992438;28;20249;-57
2022/01/17 01:06:50;;;;;;;11.77;9.40;;;;;;;5.37;100.00;101432.34;4991681;28;20331;-57
2022/01/17 01:09:18;;;;;;;18.27;11.00;;;;;;;5.42;100.00;101425.56;4998217;28;20237;-55
2022/01/17 01:11:44;;;;;;;13.37;10.00;;;;;;;5.46;100.00;101437.84;4996311;28;20233;-55
2022/01/17 01:14:11;;;;;;;17.00;10.80;;;;;;;5.44;100.00;101429.09;4995944;28;20233;-54
2022/01/17 01:16:37;;;;;;;15.00;9.47;;;;;;;5.47;100.00;101439.59;4998130;28;20231;-56
2022/01/17 01:19:25;;;;;;;16.03;9.03;;;;;;;5.43;100.00;101454.25;4999041;28;20237;-55
2022/01/17 01:27:39;;;;;;;18.83;9.93;;;;;;;5.57;100.00;101444.25;4999979;28;20257;-54
2022/01/17 01:27:56;;;;;;;13.70;9.07;;;;;;;5.59;100.00;101444.31;4999743;28;20604;-55
2022/01/17 01:30:25;;;;;;;15.97;11.00;;;;;;;5.63;100.00;101441.84;5001772;28;20986;-55
2022/01/17 01:32:54;;;;;;;16.90;8.70;;;;;;;5.70;100.00;101437.72;4997886;28;20729;-55
2022/01/17 01:35:23;;;;;;;11.20;7.83;;;;;;;5.70;100.00;101438.59;4996604;28;20249;-57
2022/01/17 01:37:50;;;;;;;12.60;7.93;;;;;;;5.73;100.00;101436.09;4999660;28;20229;-54
2022/01/17 01:40:19;;;;;;;12.43;6.73;;;;;;;5.77;100.00;101433.56;4999843;28;20241;-55
2022/01/17 01:42:45;;;;;;;10.23;7.03;;;;;;;5.77;100.00;101434.44;4997412;28;20240;-55
2022/01/17 01:45:14;;;;;;;11.33;6.97;;;;;;;5.73;100.00;101443.03;5002461;28;20234;-55
2022/01/17 01:47:41;;;;;;;10.77;5.00;;;;;;;5.69;100.00;101434.22;5001331;28;20241;-56
2022/01/17 01:50:10;;;;;;;7.17;4.27;;;;;;;5.68;100.00;101450.66;4992314;28;20839;-56
2022/01/17 01:52:37;;;;;;;7.53;4.20;;;;;;;5.76;100.00;101445.72;4998976;28;20233;-55
2022/01/17 01:55:05;;;;;;;6.63;4.67;;;;;;;5.78;100.00;101450.97;5005683;28;20307;-54
2022/01/17 01:57:32;;;;;;;5.67;3.23;;;;;;;5.66;100.00;101441.94;4999887;28;20257;-57
2022/01/17 01:59:59;;;;;;;3.10;2.73;;;;;;;5.63;100.00;101441.84;5011388;28;20238;-57
2022/01/17 02:02:25;;;;;;;5.20;2.23;;;;;;;5.62;100.00;101444.44;4993760;28;20262;-56
2022/01/17 02:04:51;;;;;;;3.77;1.93;;;;;;;5.57;100.00;101452.06;4996783;28;20261;-53
2022/01/17 02:07:19;;;;;;;4.67;2.90;;;;;;;5.50;100.00;101458.81;4999066;28;20389;-54
2022/01/17 02:09:46;;;;;;;2.07;1.63;;;;;;;5.33;100.00;101453.91;5004746;28;20268;-54
2022/01/17 02:12:13;;;;;;;9.37;1.87;;;;;;;5.16;100.00;101459.47;4994491;28;20253;-56
2022/01/17 02:14:41;;;;;;;7.73;1.80;;;;;;;4.91;100.00;101472.50;4997822;28;20229;-56
2022/01/17 02:17:07;;;;;;;5.07;1.80;;;;;;;4.70;100.00;101452.75;5009329;28;20284;-57
2022/01/17 02:19:34;;;;;;;7.93;1.97;;;;;;;4.59;100.00;101464.47;5002098;28;20233;-55
2022/01/17 02:22:04;;;;;;;10.70;2.10;;;;;;;4.54;100.00;101419.22;5002088;28;20248;-56
2022/01/17 02:24:30;;;;;;;6.43;1.83;;;;;;;4.45;100.00;101408.50;5000741;28;20322;-56
2022/01/17 02:26:57;;;;;;;7.93;1.77;;;;;;;4.42;100.00;101403.19;5001785;28;20312;-55
2022/01/17 02:29:23;;;;;;;4.40;1.47;;;;;;;4.55;100.00;101379.38;4987282;28;20241;-56
2022/01/17 02:31:49;;;;;;;6.77;1.93;;;;;;;4.60;100.00;101379.53;4997880;28;20774;-54
2022/01/17 02:34:16;;;;;;;4.03;1.57;;;;;;;4.67;100.00;101353.81;4991841;28;20281;-55
2022/01/17 02:36:43;;;;;;;6.03;2.07;;;;;;;4.76;100.00;101348.88;4998217;28;20333;-56
2022/01/17 02:39:11;;;;;;;8.87;1.73;;;;;;;4.88;100.00;101352.69;5002335;28;20296;-54
2022/01/17 02:41:39;;;;;;;5.10;1.73;;;;;;;4.89;100.00;101354.50;5000696;28;20255;-55
2022/01/17 02:44:06;;;;;;;13.03;2.30;;;;;;;4.96;100.00;101346.91;4991587;28;20230;-54
2022/01/17 02:46:32;;;;;;;11.43;2.60;;;;;;;5.02;99.73;101336.72;4997667;28;20237;-55
2022/01/17 02:49:01;;;;;;;5.07;2.10;;;;;;;5.09;99.46;101348.19;4996226;28;20242;-56
2022/01/17 02:51:28;;;;;;;3.57;1.70;;;;;;;5.02;98.83;101325.44;4997023;28;20280;-56
2022/01/17 02:54:11;;;;;;;5.30;1.60;;;;;;;5.07;99.49;101307.34;5000544;28;20538;-54
2022/01/17 02:56:37;;;;;;;2.67;1.63;;;;;;;5.10;97.35;101308.31;4992092;28;20232;-53
2022/01/17 02:59:03;;;;;;;3.67;1.60;;;;;;;5.18;96.18;101325.03;4998376;28;20256;-54
2022/01/17 03:01:30;;;;;;;5.93;1.50;;;;;;;5.21;95.94;101326.84;5003588;28;20241;-55
2022/01/17 03:03:57;;;;;;;7.17;1.80;;;;;;;5.25;95.23;101313.97;4996372;28;20260;-57
2022/01/17 03:06:23;;;;;;;8.73;1.77;;;;;;;5.21;94.18;101327.75;4995326;28;20265;-56
2022/01/17 03:08:50;;;;;;;7.73;1.10;;;;;;;5.26;94.16;101315.75;4996025;28;20283;-57
2022/01/17 03:11:20;;;;;;;7.43;1.73;;;;;;;5.30;93.91;101295.00;5003468;28;20252;-57
2022/01/17 03:13:48;;;;;;;8.33;1.73;;;;;;;5.30;94.85;101285.50;4997409;28;20750;-57
2022/01/17 03:16:15;;;;;;;5.43;1.53;;;;;;;5.31;93.91;101302.00;4995141;28;20225;-57
2022/01/17 03:18:44;;;;;;;7.30;2.00;;;;;;;5.26;94.45;101307.94;4996308;28;20236;-56
2022/01/17 03:21:12;;;;;;;9.23;2.30;;;;;;;5.35;94.51;101329.88;4995074;28;20264;-56
2022/01/17 03:23:39;;;;;;;17.53;8.87;;;;;;;5.40;93.92;101323.06;4999075;28;20225;-54
2022/01/17 03:26:06;;;;;;;76.33;38.97;;;;;;;5.40;94.06;101325.69;4992766;28;20296;-60
2022/01/17 03:28:34;;;;;;;117.13;65.80;;;;;;;5.34;92.38;101310.78;4996639;28;20261;-55
2022/01/17 03:31:00;;;;;;;22.80;17.63;;;;;;;5.43;92.71;101323.16;4999046;28;20233;-54
2022/01/17 03:33:27;;;;;;;50.97;30.77;;;;;;;5.37;92.42;101304.75;4996970;28;20260;-55
2022/01/17 03:35:54;;;;;;;79.73;57.27;;;;;;;5.31;92.58;101310.69;5003399;28;20290;-56
2022/01/17 03:38:22;;;;;;;50.67;31.83;;;;;;;5.33;92.21;101301.19;4994324;28;20241;-55
2022/01/17 03:40:51;;;;;;;54.23;35.20;;;;;;;5.35;92.61;101296.03;4995564;28;20261;-56
2022/01/17 03:43:17;;;;;;;42.10;24.07;;;;;;;5.29;93.07;101308.84;4989499;28;20984;-55
2022/01/17 03:45:46;;;;;;;54.77;28.90;;;;;;;5.36;93.29;101288.25;4994424;28;20742;-56
2022/01/17 03:48:12;;;;;;;30.80;14.97;;;;;;;5.27;92.45;101290.59;4993380;28;20307;-54
2022/01/17 03:50:39;;;;;;;10.93;3.77;;;;;;;5.35;92.88;101283.00;4997503;28;20319;-56
2022/01/17 03:53:06;;;;;;;6.27;2.60;;;;;;;5.36;93.64;101290.84;5001638;28;20252;-57
2022/01/17 03:55:34;;;;;;;8.20;2.40;;;;;;;5.35;93.12;101283.88;4996504;28;20245;-56
2022/01/17 03:58:01;;;;;;;12.33;3.87;;;;;;;5.38;92.56;101283.09;4987332;28;20719;-55
2022/01/17 04:00:30;;;;;;;6.60;2.03;;;;;;;5.33;92.12;101282.06;5000940;28;21363;-54
2022/01/17 04:02:58;;;;;;;10.43;2.67;;;;;;;5.36;93.39;101284.78;4999673;28;20237;-56
2022/01/17 04:05:25;;;;;;;7.73;2.37;;;;;;;5.43;93.90;101304.94;4999414;28;20297;-54
2022/01/17 04:07:52;;;;;;;7.03;1.77;;;;;;;5.40;93.51;101297.03;5001193;28;20335;-53
2022/01/17 04:10:18;;;;;;;9.17;1.53;;;;;;;5.45;93.39;101298.94;4999335;28;20619;-54
2022/01/17 04:12:45;;;;;;;4.97;1.60;;;;;;;5.52;93.64;101302.63;4997342;28;20306;-56
2022/01/17 04:15:12;;;;;;;6.77;1.60;;;;;;;5.50;93.63;101304.28;4988597;28;20661;-55
2022/01/17 04:17:40;;;;;;;5.40;1.73;;;;;;;5.46;94.17;101302.44;4997711;28;20245;-56
2022/01/17 04:20:13;;;;;;;8.87;2.07;;;;;;;5.37;94.16;101312.56;4989350;28;20230;-55
2022/01/17 04:22:44;;;;;;;5.03;1.73;;;;;;;5.39;94.44;101300.47;4996282;28;20233;-55
2022/01/17 04:25:11;;;;;;;7.43;1.83;;;;;;;5.37;95.37;101305.66;4996441;28;20249;-55
2022/01/17 04:27:38;;;;;;;6.77;1.70;;;;;;;5.31;95.32;101292.47;5000438;28;20710;-55
2022/01/17 04:30:08;;;;;;;3.53;1.47;;;;;;;5.36;96.04;101297.78;4992880;28;20287;-55
2022/01/17 04:32:34;;;;;;;13.40;2.63;;;;;;;5.36;96.13;101289.97;4996920;28;20730;-55
2022/01/17 04:35:01;;;;;;;12.47;1.90;;;;;;;5.29;96.37;101293.25;4999793;28;20236;-53
2022/01/17 04:37:29;;;;;;;6.80;1.33;;;;;;;5.26;97.03;101281.91;5004606;28;20796;-56
2022/01/17 04:39:55;;;;;;;9.97;1.87;;;;;;;5.33;97.75;101264.72;5000902;28;20234;-56
2022/01/17 04:42:27;;;;;;;5.07;2.07;;;;;;;5.32;97.69;101278.59;5001808;28;20307;-53
2022/01/17 04:45:10;;;;;;;16.87;2.67;;;;;;;5.30;98.17;101279.38;4995357;28;20241;-55
2022/01/17 04:47:38;;;;;;;7.07;1.73;;;;;;;5.28;98.65;101296.69;4998900;28;20229;-57
2022/01/17 04:50:05;;;;;;;8.37;2.37;;;;;;;5.33;99.17;101298.56;4987611;28;20249;-54
2022/01/17 04:52:34;;;;;;;5.53;1.57;;;;;;;5.36;99.26;101318.63;4996149;28;20303;-55
2022/01/17 04:55:02;;;;;;;5.67;2.50;;;;;;;5.41;99.07;101314.44;4998111;28;20234;-56
2022/01/17 04:57:29;;;;;;;5.13;1.80;;;;;;;5.32;99.54;101285.53;4995341;28;20237;-55
2022/01/17 04:59:55;;;;;;;6.27;2.00;;;;;;;5.25;100.00;101268.84;4998699;28;20226;-54
2022/01/17 05:02:21;;;;;;;5.23;1.87;;;;;;;5.37;99.35;101240.56;5000825;28;20299;-55
2022/01/17 05:04:48;;;;;;;7.83;1.67;;;;;;;5.37;100.00;101245.78;5000015;28;20349;-56
2022/01/17 05:07:15;;;;;;;9.17;2.97;;;;;;;5.40;99.76;101271.00;4992519;28;20766;-55
2022/01/17 05:09:44;;;;;;;5.00;1.53;;;;;;;5.34;99.73;101247.41;4997997;28;20368;-57
2022/01/17 05:12:11;;;;;;;5.27;1.60;;;;;;;5.31;99.83;101239.50;4996154;28;20235;-55
2022/01/17 05:14:40;;;;;;;5.23;1.27;;;;;;;5.21;100.00;101249.66;4997475;28;20291;-55
2022/01/17 05:17:22;;;;;;;4.27;1.40;;;;;;;5.18;100.00;101257.38;4997051;28;20257;-57
2022/01/17 05:19:48;;;;;;;9.33;1.70;;;;;;;5.18;100.00;101261.69;4992379;28;20230;-57
2022/01/17 05:22:15;;;;;;;12.67;2.50;;;;;;;5.20;100.00;101232.28;5001145;28;20671;-57
2022/01/17 05:24:43;;;;;;;5.10;2.10;;;;;;;5.18;100.00;101244.34;4996765;28;20254;-56
2022/01/17 05:27:09;;;;;;;6.87;1.80;;;;;;;5.19;100.00;101214.88;4987381;28;20253;-55
2022/01/17 05:29:35;;;;;;;6.83;1.63;;;;;;;5.28;100.00;101216.00;5008299;28;20248;-58
2022/01/17 05:32:02;;;;;;;7.17;1.80;;;;;;;5.26;100.00;101232.47;5004043;28;20241;-58
2022/01/17 05:34:28;;;;;;;4.83;1.77;;;;;;;5.35;100.00;101224.00;5009421;28;20229;-55
2022/01/17 05:36:54;;;;;;;3.40;1.57;;;;;;;5.30;100.00;101219.50;4985267;28;20751;-55
2022/01/17 05:39:21;;;;;;;8.93;1.70;;;;;;;5.42;100.00;101243.28;5004051;28;20264;-55
2022/01/17 05:41:48;;;;;;;4.90;1.47;;;;;;;5.40;100.00;101244.97;5001413;28;20721;-55
2022/01/17 05:44:15;;;;;;;7.93;1.60;;;;;;;5.37;100.00;101250.06;5005363;28;20283;-56
2022/01/17 05:46:41;;;;;;;5.47;1.57;;;;;;;5.33;100.00;101230.00;5002649;28;20291;-54
2022/01/17 05:49:07;;;;;;;7.27;1.90;;;;;;;5.33;100.00;101230.88;4990750;28;20659;-56
2022/01/17 05:51:34;;;;;;;4.23;1.87;;;;;;;5.25;100.00;101225.47;4994743;28;20708;-56
2022/01/17 05:54:00;;;;;;;6.63;1.40;;;;;;;5.38;100.00;101231.03;4999580;28;20319;-55
2022/01/17 05:56:26;;;;;;;7.10;2.03;;;;;;;5.33;100.00;101259.53;4992737;28;20697;-54
2022/01/17 05:58:54;;;;;;;6.97;1.67;;;;;;;5.38;100.00;101236.25;5010707;28;20249;-56
2022/01/17 06:01:20;;;;;;;12.27;1.90;;;;;;;5.40;100.00;101237.16;4999754;28;20574;-58
2022/01/17 06:03:46;;;;;;;5.90;1.93;;;;;;;5.40;100.00;101217.19;4990839;28;20680;-53
2022/01/17 06:06:13;;;;;;;7.33;1.90;;;;;;;5.48;100.00;101207.00;5002420;28;20323;-54
2022/01/17 06:08:39;;;;;;;7.47;2.17;;;;;;;5.41;100.00;101205.09;5001673;28;20338;-55
2022/01/17 06:11:07;;;;;;;7.90;1.87;;;;;;;5.47;100.00;101207.84;4998626;28;20776;-54
2022/01/17 06:13:33;;;;;;;5.67;1.90;;;;;;;5.49;100.00;101222.66;4999554;28;20750;-53
2022/01/17 06:16:01;;;;;;;6.73;1.70;;;;;;;5.50;100.00;101208.78;5004164;28;20818;-54
2022/01/17 06:18:27;;;;;;;5.13;1.73;;;;;;;5.48;100.00;101199.19;4996593;28;21419;-52
2022/01/17 06:20:54;;;;;;;4.13;1.17;;;;;;;5.47;100.00;101187.88;4994949;28;20362;-55
2022/01/17 06:23:21;;;;;;;6.07;1.67;;;;;;;5.47;100.00;101220.84;4993499;28;20233;-52
2022/01/17 06:25:47;;;;;;;4.03;2.20;;;;;;;5.34;100.00;101224.84;4995508;28;20265;-55
2022/01/17 06:28:14;;;;;;;13.27;3.00;;;;;;;5.37;100.00;101234.44;5000666;28;20275;-56
2022/01/17 06:30:40;;;;;;;7.80;2.03;;;;;;;5.34;100.00;101239.59;5002256;28;20257;-54
2022/01/17 06:33:08;;;;;;;6.40;1.60;;;;;;;5.21;100.00;101248.75;4996285;28;20229;-54
2022/01/17 06:35:35;;;;;;;4.57;1.53;;;;;;;5.21;100.00;101223.63;5000965;28;20240;-55
2022/01/17 06:38:03;;;;;;;3.50;1.47;;;;;;;5.17;100.00;101211.34;4990716;28;20244;-53
2022/01/17 06:40:29;;;;;;;7.20;1.80;;;;;;;5.23;100.00;101195.91;4993558;28;20238;-55
2022/01/17 06:42:56;;;;;;;5.63;1.73;;;;;;;5.23;100.00;101195.91;4988114;28;20307;-54
2022/01/17 06:45:22;;;;;;;5.73;1.67;;;;;;;5.17;100.00;101185.31;5007207;28;20929;-55
2022/01/17 06:47:49;;;;;;;6.90;1.27;;;;;;;5.15;100.00;101184.38;5000460;28;20723;-54
2022/01/17 06:50:17;;;;;;;4.63;1.50;;;;;;;5.17;100.00;101176.66;4994112;28;20755;-56
2022/01/17 06:52:44;;;;;;;5.33;1.90;;;;;;;5.09;100.00;101179.03;4993924;28;20347;-54
2022/01/17 06:55:11;;;;;;;4.33;1.60;;;;;;;5.05;100.00;101163.28;5000925;28;20609;-55
2022/01/17 06:57:37;;;;;;;3.17;1.90;;;;;;;5.02;100.00;101184.91;5001233;28;20283;-55
2022/01/17 07:00:05;;;;;;;5.93;1.83;;;;;;;5.15;100.00;101192.19;4998216;28;20245;-54
2022/01/17 07:02:31;;;;;;;5.27;1.77;;;;;;;5.12;100.00;101186.91;4990316;28;20265;-55
2022/01/17 07:04:58;;;;;;;4.27;1.50;;;;;;;5.10;100.00;101172.09;4994494;28;20328;-54
2022/01/17 07:07:26;;;;;;;1.73;1.03;;;;;;;5.06;100.00;101173.75;4989775;28;20716;-54
2022/01/17 07:09:52;;;;;;;5.60;2.03;;;;;;;5.06;100.00;101204.09;4998522;28;20226;-53
2022/01/17 07:12:18;;;;;;;7.47;1.80;;;;;;;5.09;100.00;101202.47;4993549;28;20916;-54
2022/01/17 07:14:45;;;;;;;7.87;1.70;;;;;;;5.15;100.00;101227.75;5001312;28;20241;-51
2022/01/17 07:17:11;;;;;;;5.87;2.27;;;;;;;5.16;100.00;101225.22;4988589;28;20254;-55
2022/01/17 07:19:38;;;;;;;7.43;2.67;;;;;;;5.14;100.00;101206.06;4997701;28;20312;-54
2022/01/17 07:22:05;;;;;;;5.90;1.60;;;;;;;5.09;100.00;101186.84;4998862;28;20328;-56
2022/01/17 07:24:33;;;;;;;4.00;1.10;;;;;;;5.09;100.00;101181.63;4998152;28;20703;-54
2022/01/17 07:27:00;;;;;;;8.80;2.17;;;;;;;5.12;100.00;101165.19;4999892;28;20288;-55
2022/01/17 07:29:27;;;;;;;4.30;1.50;;;;;;;5.15;100.00;101160.09;4996146;28;20319;-55
2022/01/17 07:31:53;;;;;;;11.93;2.20;;;;;;;5.15;100.00;101158.38;4995547;28;20233;-52
2022/01/17 07:34:20;;;;;;;3.97;1.67;;;;;;;5.17;100.00;101135.00;4999111;28;20298;-53
2022/01/17 07:36:46;;;;;;;4.67;1.70;;;;;;;5.14;100.00;101154.00;4997652;28;20245;-51
2022/01/17 07:39:13;;;;;;;5.93;2.17;;;;;;;5.23;100.00;101149.06;5008551;28;20279;-54
2022/01/17 07:41:41;;;;;;;9.13;1.87;;;;;;;5.20;100.00;101138.56;5008980;28;20259;-54
2022/01/17 07:44:18;;;;;;;6.97;1.60;;;;;;;5.17;100.00;101148.88;4997900;28;20294;-55
2022/01/17 07:46:50;;;;;;;4.97;1.90;;;;;;;5.18;100.00;101135.03;4997488;28;20228;-55
2022/01/17 07:49:19;;;;;;;6.83;1.97;;;;;;;5.23;100.00;101137.78;4999228;28;20237;-54
2022/01/17 07:51:48;;;;;;;5.27;1.50;;;;;;;5.20;100.00;101138.56;4999576;28;20233;-54
2022/01/17 07:54:17;;;;;;;3.40;1.30;;;;;;;5.15;100.00;101167.91;4993837;28;20253;-55
2022/01/17 07:56:46;;;;;;;8.33;1.97;;;;;;;5.12;100.00;101160.88;4993226;28;20233;-54
2022/01/17 07:59:13;;;;;;;4.13;1.80;;;;;;;5.14;100.00;101148.81;4998540;28;20237;-55
2022/01/17 08:01:40;;;;;;;6.83;1.60;;;;;;;5.20;100.00;101158.50;5001542;28;20286;-54
2022/01/17 08:04:07;;;;;;;6.20;1.63;;;;;;;5.20;100.00;101125.56;4982279;28;20316;-55
2022/01/17 08:06:38;;;;;;;3.10;1.43;;;;;;;5.18;100.00;101144.56;4992023;28;20245;-55
2022/01/17 08:09:05;;;;;;;4.40;1.77;;;;;;;5.19;100.00;101135.91;5004801;28;20307;-56
2022/01/17 08:11:32;;;;;;;10.17;2.00;;;;;;;5.12;100.00;101139.19;4990155;28;22031;-54
2022/01/17 08:13:59;;;;;;;5.00;1.07;;;;;;;5.05;100.00;101127.72;5003982;28;20263;-55
2022/01/17 08:16:25;;;;;;;3.77;1.10;;;;;;;5.11;100.00;101114.88;4995451;28;20236;-55
2022/01/17 08:18:52;;;;;;;1.40;1.13;;;;;;;5.01;100.00;101123.28;5006181;28;20229;-55
2022/01/17 08:21:19;;;;;;;4.40;1.60;;;;;;;5.07;100.00;101110.44;5000689;28;20248;-54
2022/01/17 08:23:45;;;;;;;2.90;1.93;;;;;;;5.05;100.00;101122.50;4987863;28;20620;-54
2022/01/17 08:26:11;;;;;;;5.60;2.47;;;;;;;5.10;100.00;101097.50;4989254;28;20269;-55
2022/01/17 08:28:38;;;;;;;4.93;1.70;;;;;;;5.12;100.00;101093.22;4995154;28;20318;-55
2022/01/17 08:31:05;;;;;;;6.23;2.80;;;;;;;5.08;100.00;101099.19;4994705;28;20253;-56
2022/01/17 08:33:32;;;;;;;3.37;1.50;;;;;;;5.11;100.00;101081.03;4992279;28;20233;-55
2022/01/17 08:35:58;;;;;;;2.87;1.73;;;;;;;5.11;100.00;101081.03;4996376;28;20852;-56
2022/01/17 08:38:28;;;;;;;3.13;1.77;;;;;;;5.01;100.00;101094.66;4993049;28;20229;-54
2022/01/17 08:40:55;;;;;;;1.87;1.40;;;;;;;5.07;100.00;101092.22;4993151;28;20233;-55
2022/01/17 08:43:21;;;;;;;5.80;2.33;;;;;;;5.11;100.00;101111.41;4998508;28;20257;-54
2022/01/17 08:45:49;;;;;;;3.33;1.17;;;;;;;5.17;100.00;101112.44;5005208;28;20267;-55
2022/01/17 08:48:16;;;;;;;5.17;1.90;;;;;;;5.17;100.00;101148.00;4996877;28;20263;-55
2022/01/17 08:50:46;;;;;;;4.33;1.57;;;;;;;5.17;100.00;101156.69;5003373;28;20839;-62
2022/01/17 08:53:13;;;;;;;5.13;1.80;;;;;;;5.16;100.00;101151.44;5007413;28;20810;-55
2022/01/17 08:55:40;;;;;;;2.03;1.60;;;;;;;5.16;100.00;101170.56;4997280;28;20249;-55
2022/01/17 08:58:07;;;;;;;3.33;1.67;;;;;;;5.15;100.00;101139.25;5000194;28;20295;-64
2022/01/17 09:00:34;;;;;;;4.13;1.60;;;;;;;5.19;100.00;101135.91;5014343;28;20248;-55
2022/01/17 09:03:02;;;;;;;2.20;1.37;;;;;;;5.22;100.00;101165.50;5002535;28;20256;-56
2022/01/17 09:05:29;;;;;;;4.87;1.63;;;;;;;5.29;100.00;101142.25;4990998;28;20249;-56
2022/01/17 09:07:56;;;;;;;5.63;1.60;;;;;;;5.25;100.00;101157.78;4997209;28;20892;-55
2022/01/17 09:10:23;;;;;;;1.80;1.47;;;;;;;5.11;100.00;101142.63;4996548;28;20325;-54
2022/01/17 09:12:51;;;;;;;2.97;1.37;;;;;;;5.05;100.00;101121.63;4995500;28;20691;-55
2022/01/17 09:15:17;;;;;;;5.37;1.53;;;;;;;5.11;100.00;101121.81;4996532;28;22166;-53
2022/01/17 09:17:44;;;;;;;1.93;1.23;;;;;;;5.10;100.00;101135.66;4999227;28;20237;-60
2022/01/17 09:20:11;;;;;;;1.80;1.40;;;;;;;5.12;100.00;101140.06;5010708;28;20249;-56
2022/01/17 09:22:39;;;;;;;4.13;1.33;;;;;;;5.10;100.00;101146.97;5019829;28;20236;-55
2022/01/17 09:25:07;;;;;;;2.50;1.50;;;;;;;5.08;100.00;101160.75;5012023;28;20233;-55
2022/01/17 09:27:33;;;;;;;6.73;1.30;;;;;;;5.09;100.00;101149.50;5015731;28;21618;-55
2022/01/17 09:30:00;;;;;;;4.10;1.43;;;;;;;5.12;100.00;101160.88;5010712;28;20226;-57
2022/01/17 09:32:26;;;;;;;7.47;1.30;;;;;;;5.16;100.00;101175.75;5019366;28;20229;-58
2022/01/17 09:34:52;;;;;;;3.20;1.30;;;;;;;5.24;100.00;101184.66;4994602;28;20230;-58
2022/01/17 09:37:19;;;;;;;5.73;1.30;;;;;;;5.30;100.00;101198.66;4999155;28;20257;-54
2022/01/17 09:39:46;;;;;;;2.33;1.17;;;;;;;5.22;100.00;101191.53;4997977;28;20234;-54
2022/01/17 09:42:13;;;;;;;4.40;1.57;;;;;;;5.24;100.00;101199.41;4992431;28;20319;-55
2022/01/17 09:44:39;;;;;;;2.50;1.50;;;;;;;5.22;100.00;101209.75;5003124;28;20233;-56
2022/01/17 09:47:06;;;;;;;3.53;2.83;;;;;;;5.22;100.00;101243.59;5005536;28;20232;-56
2022/01/17 09:49:37;;;;;;;2.17;1.80;;;;;;;5.29;100.00;101243.78;5001632;28;20861;-56
2022/01/17 09:52:33;;;;;;;7.47;1.93;;;;;;;5.26;100.00;101262.78;4995949;28;20225;-57
2022/01/17 09:55:05;;;;;;;4.77;1.40;;;;;;;5.31;100.00;101322.81;4994552;28;20257;-58
2022/01/17 09:57:33;;;;;;;4.77;1.93;;;;;;;5.15;100.00;101317.13;4996954;28;20255;-56
2022/01/17 09:59:59;;;;;;;2.00;0.90;;;;;;;4.61;100.00;101348.38;4993245;28;20319;-56
2022/01/17 10:02:26;;;;;;;2.10;0.60;;;;;;;4.44;100.00;101359.94;4991067;28;20284;-56
2022/01/17 10:04:52;;;;;;;1.27;0.60;;;;;;;4.45;100.00;101351.28;5001855;28;20265;-56
2022/01/17 10:07:18;;;;;;;2.37;0.80;;;;;;;4.38;100.00;101362.31;5004264;28;20246;-55
2022/01/17 10:09:54;;;;;;;3.47;0.60;;;;;;;4.50;100.00;101376.63;4988911;28;20334;-57
2022/01/17 10:12:22;;;;;;;1.10;1.00;;;;;;;4.58;100.00;101361.28;4985422;28;20234;-56
2022/01/17 10:14:58;;;;;;;1.37;0.83;;;;;;;4.50;100.00;101368.84;4997642;28;20241;-56
2022/01/17 10:17:26;;;;;;;2.33;1.03;;;;;;;4.53;100.00;101375.88;5001372;28;20769;-57
2022/01/17 10:20:00;;;;;;;3.97;0.63;;;;;;;4.51;100.00;101382.72;4988275;28;20288;-56
2022/01/17 10:22:35;;;;;;;2.17;1.03;;;;;;;4.58;100.00;101374.28;5001894;28;20231;-56
2022/01/17 10:25:19;;;;;;;6.13;1.93;;;;;;;4.58;100.00;101374.28;4997129;28;20241;-57
2022/01/17 10:28:16;;;;;;;4.47;1.10;;;;;;;4.71;100.00;101360.88;4988060;28;20643;-56
2022/01/17 10:31:05;;;;;;;2.00;0.73;;;;;;;4.67;100.00;101372.00;4994344;28;20239;-57
2022/01/17 10:36:43;;;;;;;6.17;2.70;;;;;;;4.75;100.00;101406.94;4940949;28;20250;-57
2022/01/17 10:39:09;;;;;;;6.57;1.70;;;;;;;4.77;100.00;101413.09;4989993;28;20233;-57
2022/01/17 10:41:35;;;;;;;4.57;2.27;;;;;;;4.83;100.00;101417.59;4998071;28;20229;-57
2022/01/17 10:44:04;;;;;;;6.30;1.20;;;;;;;4.79;100.00;101421.81;4994859;28;20268;-55
2022/01/17 10:46:30;;;;;;;8.67;1.97;;;;;;;4.74;100.00;101426.00;4999859;28;20261;-55
2022/01/17 10:48:57;;;;;;;6.30;1.30;;;;;;;4.61;100.00;101455.00;5000388;28;20249;-55
2022/01/17 10:51:28;;;;;;;4.00;1.57;;;;;;;4.67;100.00;101472.53;5010195;28;20245;-56
2022/01/17 10:53:55;;;;;;;5.57;1.70;;;;;;;4.67;100.00;101464.72;5004331;28;20650;-55
2022/01/17 10:56:25;;;;;;;3.13;1.30;;;;;;;4.72;100.00;101456.25;5001026;28;20241;-57
2022/01/17 10:59:02;;;;;;;7.93;2.37;;;;;;;4.75;100.00;101471.97;5002313;28;20236;-52
2022/01/17 11:01:36;;;;;;;5.20;2.03;;;;;;;4.74;100.00;101458.94;5005867;28;20302;-56
2022/01/17 11:04:08;;;;;;;2.93;1.80;;;;;;;4.71;100.00;101464.91;5010240;28;20306;-54
2022/01/17 11:06:46;;;;;;;5.50;1.17;;;;;;;4.81;100.00;101467.81;5008720;28;20237;-53
2022/01/17 11:09:13;;;;;;;2.87;1.40;;;;;;;4.82;100.00;101474.78;5004270;28;20306;-55
2022/01/17 11:11:39;;;;;;;7.23;2.50;;;;;;;4.82;100.00;101473.06;4993413;28;20237;-52
2022/01/17 11:14:08;;;;;;;5.33;2.47;;;;;;;4.76;100.00;101488.47;5000421;28;20233;-52
2022/01/17 11:16:37;;;;;;;6.70;2.63;;;;;;;4.78;100.00;101497.22;5001068;28;20241;-53
2022/01/17 11:20:02;;;;;;;6.23;1.63;;;;;;;4.68;100.00;101531.53;5000321;28;20268;-54
2022/01/17 11:21:50;;;;;;;2.40;1.20;;;;;;;4.18;100.00;101552.25;4994031;28;20826;-54
2022/01/17 11:24:17;;;;;;;2.47;0.90;;;;;;;3.97;100.00;101554.91;5003866;28;20253;-53
2022/01/17 11:26:43;;;;;;;3.43;1.57;;;;;;;3.76;100.00;101598.22;4995474;28;20306;-55
2022/01/17 11:29:12;;;;;;;4.87;1.60;;;;;;;3.41;100.00;101612.34;4999924;28;20446;-54
2022/01/17 11:31:39;;;;;;;5.40;1.20;;;;;;;3.24;100.00;101612.50;4998833;28;20254;-53
2022/01/17 11:34:09;;;;;;;2.50;1.70;;;;;;;3.27;100.00;101635.09;4992982;28;20327;-55
2022/01/17 11:36:36;;;;;;;2.83;1.30;;;;;;;3.10;100.00;101644.75;4989917;28;20579;-52
2022/01/17 11:39:03;;;;;;;5.77;1.80;;;;;;;2.87;100.00;101647.19;5001488;28;20323;-53
2022/01/17 11:41:31;;;;;;;8.33;2.03;;;;;;;2.68;100.00;101647.19;4996573;28;20240;-54
2022/01/17 11:43:59;;;;;;;3.90;1.50;;;;;;;2.75;100.00;101659.63;5007117;28;20522;-55
2022/01/17 11:46:27;;;;;;;7.57;2.30;;;;;;;2.80;100.00;101647.75;5003837;28;20970;-55
2022/01/17 11:48:56;;;;;;;8.00;2.07;;;;;;;2.77;100.00;101649.31;4994604;28;20237;-53